sensor_id;sensor_type;location;lat;lon;timestamp;pressure;altitude;pressure_sealevel;temperature;humidity
64141;BME280;50436;50.618;7.932;2023-07-08T00:00:17;96749.59;;;19.99;74.80
64141;BME280;50436;50.618;7.932;2023-07-08T00:03:12;96753.66;;;20.01;76.04
64141;BME280;50436;50.618;7.932;2023-07-08T00:05:57;96748.31;;;19.96;75.01
64141;BME280;50436;50.618;7.932;2023-07-08T00:08:43;96742.06;;;19.82;75.61
64141;BME280;50436;50.618;7.932;2023-07-08T00:11:29;96747.00;;;19.80;77.05
64141;BME280;50436;50.618;7.932;2023-07-08T00:14:15;96735.63;;;19.78;75.72
64141;BME280;50436;50.618;7.932;2023-07-08T00:17:01;96746.50;;;19.78;76.78
64141;BME280;50436;50.618;7.932;2023-07-08T00:19:47;96737.03;;;19.75;77.49
64141;BME280;50436;50.618;7.932;2023-07-08T00:22:33;96739.75;;;19.62;78.94
64141;BME280;50436;50.618;7.932;2023-07-08T00:25:20;96733.56;;;19.56;78.06
64141;BME280;50436;50.618;7.932;2023-07-08T00:28:13;96737.78;;;19.48;78.15
64141;BME280;50436;50.618;7.932;2023-07-08T00:31:00;96736.47;;;19.46;78.89
64141;BME280;50436;50.618;7.932;2023-07-08T00:33:46;96735.75;;;19.40;78.79
64141;BME280;50436;50.618;7.932;2023-07-08T00:36:32;96735.25;;;19.38;79.71
64141;BME280;50436;50.618;7.932;2023-07-08T00:39:18;96724.16;;;19.35;80.04
64141;BME280;50436;50.618;7.932;2023-07-08T00:42:30;96735.31;;;19.33;80.61
64141;BME280;50436;50.618;7.932;2023-07-08T00:45:28;96737.81;;;19.30;81.06
64141;BME280;50436;50.618;7.932;2023-07-08T00:48:20;96742.00;;;19.22;80.74
64141;BME280;50436;50.618;7.932;2023-07-08T00:51:11;96737.06;;;19.10;82.86
64141;BME280;50436;50.618;7.932;2023-07-08T00:53:57;96740.00;;;18.95;82.56
64141;BME280;50436;50.618;7.932;2023-07-08T00:57:00;96735.47;;;19.09;83.13
64141;BME280;50436;50.618;7.932;2023-07-08T00:59:54;96726.72;;;19.12;81.62
64141;BME280;50436;50.618;7.932;2023-07-08T01:02:49;96722.69;;;19.10;82.16
64141;BME280;50436;50.618;7.932;2023-07-08T01:05:37;96722.91;;;19.13;79.94
64141;BME280;50436;50.618;7.932;2023-07-08T01:08:25;96718.38;;;19.09;82.32
64141;BME280;50436;50.618;7.932;2023-07-08T01:11:14;96725.91;;;19.12;80.68
64141;BME280;50436;50.618;7.932;2023-07-08T01:14:01;96721.97;;;19.04;82.59
64141;BME280;50436;50.618;7.932;2023-07-08T01:16:52;96728.56;;;18.98;81.38
64141;BME280;50436;50.618;7.932;2023-07-08T01:19:41;96731.50;;;18.83;83.41
64141;BME280;50436;50.618;7.932;2023-07-08T01:22:27;96720.16;;;18.81;83.33
64141;BME280;50436;50.618;7.932;2023-07-08T01:25:17;96728.09;;;18.77;84.20
64141;BME280;50436;50.618;7.932;2023-07-08T01:28:04;96726.44;;;18.57;85.56
64141;BME280;50436;50.618;7.932;2023-07-08T01:30:50;96721.25;;;18.42;86.08
64141;BME280;50436;50.618;7.932;2023-07-08T01:33:36;96719.88;;;18.45;85.91
64141;BME280;50436;50.618;7.932;2023-07-08T01:36:22;96724.84;;;18.56;85.26
64141;BME280;50436;50.618;7.932;2023-07-08T01:39:13;96728.06;;;18.58;86.06
64141;BME280;50436;50.618;7.932;2023-07-08T01:42:00;96722.19;;;18.51;84.89
64141;BME280;50436;50.618;7.932;2023-07-08T01:44:46;96725.44;;;18.53;84.56
64141;BME280;50436;50.618;7.932;2023-07-08T01:47:33;96709.69;;;18.55;83.82
64141;BME280;50436;50.618;7.932;2023-07-08T01:50:20;96712.38;;;18.55;84.40
64141;BME280;50436;50.618;7.932;2023-07-08T01:53:12;96715.41;;;18.54;84.42
64141;BME280;50436;50.618;7.932;2023-07-08T01:55:59;96707.72;;;18.61;84.42
64141;BME280;50436;50.618;7.932;2023-07-08T01:58:46;96709.03;;;18.63;83.33
64141;BME280;50436;50.618;7.932;2023-07-08T02:01:32;96698.25;;;18.58;84.27
64141;BME280;50436;50.618;7.932;2023-07-08T02:04:18;96702.34;;;18.56;83.91
64141;BME280;50436;50.618;7.932;2023-07-08T02:07:04;96697.16;;;18.59;83.74
64141;BME280;50436;50.618;7.932;2023-07-08T02:09:50;96692.25;;;18.61;83.21
64141;BME280;50436;50.618;7.932;2023-07-08T02:12:36;96688.00;;;18.55;83.62
64141;BME280;50436;50.618;7.932;2023-07-08T02:15:22;96693.63;;;18.59;83.77
64141;BME280;50436;50.618;7.932;2023-07-08T02:18:08;96693.06;;;18.62;83.13
64141;BME280;50436;50.618;7.932;2023-07-08T02:20:54;96679.06;;;18.55;83.53
64141;BME280;50436;50.618;7.932;2023-07-08T02:23:41;96683.75;;;18.49;83.99
64141;BME280;50436;50.618;7.932;2023-07-08T02:26:27;96689.63;;;18.56;83.38
64141;BME280;50436;50.618;7.932;2023-07-08T02:29:13;96680.75;;;18.51;83.50
64141;BME280;50436;50.618;7.932;2023-07-08T02:31:59;96684.91;;;18.43;84.27
64141;BME280;50436;50.618;7.932;2023-07-08T02:34:45;96679.50;;;18.43;83.89
64141;BME280;50436;50.618;7.932;2023-07-08T02:37:31;96677.38;;;18.40;84.93
64141;BME280;50436;50.618;7.932;2023-07-08T02:40:18;96669.63;;;18.33;84.86
64141;BME280;50436;50.618;7.932;2023-07-08T02:43:04;96673.13;;;18.34;84.32
64141;BME280;50436;50.618;7.932;2023-07-08T02:45:51;96667.22;;;18.32;85.24
64141;BME280;50436;50.618;7.932;2023-07-08T02:48:37;96674.19;;;18.38;84.89
64141;BME280;50436;50.618;7.932;2023-07-08T02:51:23;96672.38;;;18.28;85.54
64141;BME280;50436;50.618;7.932;2023-07-08T02:54:09;96672.78;;;18.22;85.35
64141;BME280;50436;50.618;7.932;2023-07-08T02:56:55;96671.69;;;18.23;86.04
64141;BME280;50436;50.618;7.932;2023-07-08T02:59:41;96673.28;;;18.24;85.75
64141;BME280;50436;50.618;7.932;2023-07-08T03:02:26;96678.75;;;18.19;86.18
64141;BME280;50436;50.618;7.932;2023-07-08T03:05:12;96671.28;;;18.10;86.83
64141;BME280;50436;50.618;7.932;2023-07-08T03:07:58;96676.94;;;18.14;86.71
64141;BME280;50436;50.618;7.932;2023-07-08T03:10:48;96685.53;;;18.21;86.67
64141;BME280;50436;50.618;7.932;2023-07-08T03:13:34;96681.97;;;18.21;86.49
64141;BME280;50436;50.618;7.932;2023-07-08T03:16:21;96681.75;;;18.17;86.47
64141;BME280;50436;50.618;7.932;2023-07-08T03:19:10;96680.91;;;18.22;86.82
64141;BME280;50436;50.618;7.932;2023-07-08T03:21:56;96684.31;;;18.08;87.76
64141;BME280;50436;50.618;7.932;2023-07-08T03:24:43;96695.16;;;18.08;87.27
64141;BME280;50436;50.618;7.932;2023-07-08T03:27:35;96692.44;;;18.08;88.23
64141;BME280;50436;50.618;7.932;2023-07-08T03:30:21;96691.41;;;18.04;88.37
64141;BME280;50436;50.618;7.932;2023-07-08T03:33:09;96694.66;;;18.06;88.54
64141;BME280;50436;50.618;7.932;2023-07-08T03:35:55;96696.56;;;18.06;88.68
64141;BME280;50436;50.618;7.932;2023-07-08T03:38:41;96700.16;;;17.96;89.34
64141;BME280;50436;50.618;7.932;2023-07-08T03:41:27;96705.13;;;17.89;90.24
64141;BME280;50436;50.618;7.932;2023-07-08T03:44:15;96710.31;;;17.86;90.43
64141;BME280;50436;50.618;7.932;2023-07-08T03:47:02;96711.97;;;17.81;90.74
64141;BME280;50436;50.618;7.932;2023-07-08T03:49:48;96710.38;;;17.80;91.38
64141;BME280;50436;50.618;7.932;2023-07-08T03:52:34;96712.72;;;17.87;90.44
64141;BME280;50436;50.618;7.932;2023-07-08T03:55:21;96706.22;;;17.88;90.38
64141;BME280;50436;50.618;7.932;2023-07-08T03:58:07;96709.47;;;17.90;89.87
64141;BME280;50436;50.618;7.932;2023-07-08T04:00:55;96710.19;;;17.96;90.29
64141;BME280;50436;50.618;7.932;2023-07-08T04:03:42;96707.72;;;17.99;90.35
64141;BME280;50436;50.618;7.932;2023-07-08T04:06:28;96704.88;;;18.09;88.50
64141;BME280;50436;50.618;7.932;2023-07-08T04:09:17;96711.34;;;18.14;87.94
64141;BME280;50436;50.618;7.932;2023-07-08T04:12:03;96714.63;;;18.10;88.33
64141;BME280;50436;50.618;7.932;2023-07-08T04:14:50;96717.13;;;18.07;89.10
64141;BME280;50436;50.618;7.932;2023-07-08T04:17:41;96713.59;;;18.06;88.74
64141;BME280;50436;50.618;7.932;2023-07-08T04:20:29;96711.91;;;18.10;88.58
64141;BME280;50436;50.618;7.932;2023-07-08T04:23:15;96716.75;;;18.14;88.43
64141;BME280;50436;50.618;7.932;2023-07-08T04:26:01;96717.78;;;18.18;87.29
64141;BME280;50436;50.618;7.932;2023-07-08T04:28:47;96710.69;;;18.22;87.47
64141;BME280;50436;50.618;7.932;2023-07-08T04:31:36;96718.16;;;18.30;87.84
64141;BME280;50436;50.618;7.932;2023-07-08T04:34:22;96720.00;;;18.34;87.52
64141;BME280;50436;50.618;7.932;2023-07-08T04:37:11;96713.91;;;18.43;86.19
64141;BME280;50436;50.618;7.932;2023-07-08T04:39:57;96722.44;;;18.55;84.98
64141;BME280;50436;50.618;7.932;2023-07-08T04:42:45;96726.31;;;18.68;84.93
64141;BME280;50436;50.618;7.932;2023-07-08T04:45:33;96724.59;;;18.77;84.10
64141;BME280;50436;50.618;7.932;2023-07-08T04:48:20;96707.41;;;18.81;85.20
64141;BME280;50436;50.618;7.932;2023-07-08T04:51:10;96711.91;;;18.91;84.33
64141;BME280;50436;50.618;7.932;2023-07-08T04:53:56;96714.44;;;19.01;83.73
64141;BME280;50436;50.618;7.932;2023-07-08T04:56:44;96716.00;;;19.21;83.22
64141;BME280;50436;50.618;7.932;2023-07-08T04:59:31;96716.03;;;19.35;81.72
64141;BME280;50436;50.618;7.932;2023-07-08T05:02:20;96723.59;;;19.52;81.63
64141;BME280;50436;50.618;7.932;2023-07-08T05:05:06;96721.44;;;19.67;80.79
64141;BME280;50436;50.618;7.932;2023-07-08T05:07:52;96727.78;;;19.76;81.56
64141;BME280;50436;50.618;7.932;2023-07-08T05:10:39;96723.19;;;19.77;82.01
64141;BME280;50436;50.618;7.932;2023-07-08T05:13:25;96719.03;;;19.80;82.50
64141;BME280;50436;50.618;7.932;2023-07-08T05:16:11;96716.75;;;19.87;81.63
64141;BME280;50436;50.618;7.932;2023-07-08T05:18:56;96717.63;;;19.96;81.47
64141;BME280;50436;50.618;7.932;2023-07-08T05:21:43;96725.06;;;20.04;81.14
64141;BME280;50436;50.618;7.932;2023-07-08T05:24:30;96724.84;;;20.14;79.98
64141;BME280;50436;50.618;7.932;2023-07-08T05:27:17;96715.00;;;20.18;80.08
64141;BME280;50436;50.618;7.932;2023-07-08T05:30:04;96714.69;;;20.20;82.17
64141;BME280;50436;50.618;7.932;2023-07-08T05:32:50;96716.72;;;20.14;82.93
64141;BME280;50436;50.618;7.932;2023-07-08T05:35:36;96713.72;;;20.16;82.55
64141;BME280;50436;50.618;7.932;2023-07-08T05:38:23;96714.63;;;20.11;83.79
64141;BME280;50436;50.618;7.932;2023-07-08T05:41:09;96710.38;;;20.19;83.70
64141;BME280;50436;50.618;7.932;2023-07-08T05:43:55;96706.75;;;20.23;82.25
64141;BME280;50436;50.618;7.932;2023-07-08T05:46:41;96703.31;;;20.31;82.41
64141;BME280;50436;50.618;7.932;2023-07-08T05:49:27;96704.09;;;20.46;80.80
64141;BME280;50436;50.618;7.932;2023-07-08T05:52:13;96706.75;;;20.73;80.42
64141;BME280;50436;50.618;7.932;2023-07-08T05:54:59;96713.13;;;20.91;79.13
64141;BME280;50436;50.618;7.932;2023-07-08T05:57:45;96709.25;;;21.06;79.51
64141;BME280;50436;50.618;7.932;2023-07-08T06:00:31;96699.72;;;21.17;80.71
64141;BME280;50436;50.618;7.932;2023-07-08T06:03:17;96701.38;;;21.27;77.76
64141;BME280;50436;50.618;7.932;2023-07-08T06:06:03;96713.94;;;21.36;77.22
64141;BME280;50436;50.618;7.932;2023-07-08T06:08:52;96724.28;;;21.48;75.40
64141;BME280;50436;50.618;7.932;2023-07-08T06:11:38;96720.06;;;21.42;78.56
64141;BME280;50436;50.618;7.932;2023-07-08T06:14:24;96721.41;;;21.53;80.03
64141;BME280;50436;50.618;7.932;2023-07-08T06:17:09;96724.69;;;21.64;80.29
64141;BME280;50436;50.618;7.932;2023-07-08T06:19:56;96728.84;;;21.70;76.84
64141;BME280;50436;50.618;7.932;2023-07-08T06:22:42;96732.09;;;21.72;76.13
64141;BME280;50436;50.618;7.932;2023-07-08T06:25:28;96731.44;;;21.75;77.33
64141;BME280;50436;50.618;7.932;2023-07-08T06:28:14;96723.19;;;21.89;80.11
64141;BME280;50436;50.618;7.932;2023-07-08T06:30:59;96727.06;;;21.96;80.03
64141;BME280;50436;50.618;7.932;2023-07-08T06:33:45;96730.72;;;21.92;78.26
64141;BME280;50436;50.618;7.932;2023-07-08T06:36:31;96730.25;;;21.98;80.53
64141;BME280;50436;50.618;7.932;2023-07-08T06:39:18;96734.41;;;21.87;77.38
64141;BME280;50436;50.618;7.932;2023-07-08T06:42:04;96743.81;;;21.81;79.09
64141;BME280;50436;50.618;7.932;2023-07-08T06:44:52;96740.78;;;21.83;80.59
64141;BME280;50436;50.618;7.932;2023-07-08T06:47:38;96736.78;;;21.80;81.33
64141;BME280;50436;50.618;7.932;2023-07-08T06:50:24;96731.41;;;21.66;82.12
64141;BME280;50436;50.618;7.932;2023-07-08T06:53:10;96738.69;;;21.49;80.09
64141;BME280;50436;50.618;7.932;2023-07-08T06:55:56;96741.03;;;21.64;75.64
64141;BME280;50436;50.618;7.932;2023-07-08T06:58:43;96736.25;;;21.78;77.79
64141;BME280;50436;50.618;7.932;2023-07-08T07:01:28;96729.91;;;21.91;76.90
64141;BME280;50436;50.618;7.932;2023-07-08T07:04:14;96744.00;;;21.93;71.86
64141;BME280;50436;50.618;7.932;2023-07-08T07:07:00;96732.84;;;22.04;75.63
64141;BME280;50436;50.618;7.932;2023-07-08T07:09:46;96734.03;;;22.11;73.26
64141;BME280;50436;50.618;7.932;2023-07-08T07:12:32;96733.75;;;22.21;76.02
64141;BME280;50436;50.618;7.932;2023-07-08T07:15:18;96732.94;;;22.21;72.68
64141;BME280;50436;50.618;7.932;2023-07-08T07:18:04;96731.16;;;22.25;70.62
64141;BME280;50436;50.618;7.932;2023-07-08T07:20:53;96741.94;;;22.30;68.11
64141;BME280;50436;50.618;7.932;2023-07-08T07:23:39;96734.88;;;22.29;71.83
64141;BME280;50436;50.618;7.932;2023-07-08T07:26:25;96737.13;;;22.27;67.11
64141;BME280;50436;50.618;7.932;2023-07-08T07:29:11;96727.19;;;22.31;64.38
64141;BME280;50436;50.618;7.932;2023-07-08T07:31:57;96732.63;;;22.31;66.52
64141;BME280;50436;50.618;7.932;2023-07-08T07:34:46;96726.56;;;22.43;67.07
64141;BME280;50436;50.618;7.932;2023-07-08T07:37:32;96735.91;;;22.50;69.45
64141;BME280;50436;50.618;7.932;2023-07-08T07:40:18;96740.88;;;22.57;67.66
64141;BME280;50436;50.618;7.932;2023-07-08T07:43:04;96738.97;;;22.66;69.94
64141;BME280;50436;50.618;7.932;2023-07-08T07:45:51;96743.16;;;22.72;64.96
64141;BME280;50436;50.618;7.932;2023-07-08T07:48:38;96741.03;;;22.78;68.91
64141;BME280;50436;50.618;7.932;2023-07-08T07:51:23;96748.97;;;22.97;68.97
64141;BME280;50436;50.618;7.932;2023-07-08T07:54:09;96755.69;;;23.08;63.43
64141;BME280;50436;50.618;7.932;2023-07-08T07:56:55;96744.78;;;22.99;59.30
64141;BME280;50436;50.618;7.932;2023-07-08T07:59:41;96734.84;;;23.03;65.12
64141;BME280;50436;50.618;7.932;2023-07-08T08:02:27;96743.94;;;23.25;65.66
64141;BME280;50436;50.618;7.932;2023-07-08T08:05:13;96743.50;;;23.14;64.33
64141;BME280;50436;50.618;7.932;2023-07-08T08:07:59;96744.94;;;23.12;66.11
64141;BME280;50436;50.618;7.932;2023-07-08T08:10:45;96747.31;;;23.30;66.81
64141;BME280;50436;50.618;7.932;2023-07-08T08:13:31;96748.59;;;23.50;59.83
64141;BME280;50436;50.618;7.932;2023-07-08T08:16:17;96753.38;;;23.71;66.79
64141;BME280;50436;50.618;7.932;2023-07-08T08:19:03;96743.41;;;23.75;64.59
64141;BME280;50436;50.618;7.932;2023-07-08T08:21:49;96745.97;;;23.71;59.78
64141;BME280;50436;50.618;7.932;2023-07-08T08:24:35;96755.09;;;23.84;59.25
64141;BME280;50436;50.618;7.932;2023-07-08T08:27:21;96755.41;;;23.91;57.41
64141;BME280;50436;50.618;7.932;2023-07-08T08:30:07;96742.69;;;23.95;60.86
64141;BME280;50436;50.618;7.932;2023-07-08T08:32:53;96741.19;;;24.06;57.18
64141;BME280;50436;50.618;7.932;2023-07-08T08:35:39;96752.22;;;24.18;64.06
64141;BME280;50436;50.618;7.932;2023-07-08T08:38:25;96743.44;;;24.42;63.05
64141;BME280;50436;50.618;7.932;2023-07-08T08:41:16;96748.22;;;24.54;62.76
64141;BME280;50436;50.618;7.932;2023-07-08T08:44:04;96736.75;;;24.61;54.87
64141;BME280;50436;50.618;7.932;2023-07-08T08:49:56;96739.53;;;24.73;58.89
64141;BME280;50436;50.618;7.932;2023-07-08T08:52:44;96738.38;;;24.83;54.89
64141;BME280;50436;50.618;7.932;2023-07-08T08:55:30;96748.81;;;25.01;57.13
64141;BME280;50436;50.618;7.932;2023-07-08T09:01:20;96742.50;;;25.31;57.54
64141;BME280;50436;50.618;7.932;2023-07-08T09:04:17;96741.13;;;25.37;50.73
64141;BME280;50436;50.618;7.932;2023-07-08T09:07:08;96750.91;;;25.25;53.10
64141;BME280;50436;50.618;7.932;2023-07-08T09:13:30;96752.97;;;25.28;54.77
64141;BME280;50436;50.618;7.932;2023-07-08T09:19:28;96752.47;;;25.80;57.82
64141;BME280;50436;50.618;7.932;2023-07-08T09:22:43;96751.78;;;25.71;49.30
64141;BME280;50436;50.618;7.932;2023-07-08T09:26:17;96753.09;;;25.65;50.65
64141;BME280;50436;50.618;7.932;2023-07-08T09:29:08;96735.56;;;25.91;53.54
64141;BME280;50436;50.618;7.932;2023-07-08T09:31:56;96748.38;;;25.99;51.88
64141;BME280;50436;50.618;7.932;2023-07-08T09:34:50;96742.56;;;26.13;50.45
64141;BME280;50436;50.618;7.932;2023-07-08T09:37:38;96744.88;;;26.23;53.25
64141;BME280;50436;50.618;7.932;2023-07-08T09:40:32;96746.59;;;26.64;55.12
64141;BME280;50436;50.618;7.932;2023-07-08T09:43:34;96763.06;;;26.64;48.77
64141;BME280;50436;50.618;7.932;2023-07-08T09:46:22;96758.50;;;26.56;50.74
64141;BME280;50436;50.618;7.932;2023-07-08T09:49:21;96761.56;;;26.66;48.13
64141;BME280;50436;50.618;7.932;2023-07-08T09:52:12;96763.28;;;26.71;48.87
64141;BME280;50436;50.618;7.932;2023-07-08T09:54:57;96754.56;;;26.69;44.97
64141;BME280;50436;50.618;7.932;2023-07-08T09:57:47;96754.53;;;26.93;52.82
64141;BME280;50436;50.618;7.932;2023-07-08T10:00:39;96744.41;;;27.22;53.39
64141;BME280;50436;50.618;7.932;2023-07-08T10:03:29;96735.59;;;27.44;48.60
64141;BME280;50436;50.618;7.932;2023-07-08T10:06:21;96746.34;;;27.49;45.18
64141;BME280;50436;50.618;7.932;2023-07-08T10:09:12;96746.00;;;27.79;48.64
64141;BME280;50436;50.618;7.932;2023-07-08T10:12:05;96749.00;;;27.74;45.17
64141;BME280;50436;50.618;7.932;2023-07-08T10:15:03;96748.47;;;28.00;46.87
64141;BME280;50436;50.618;7.932;2023-07-08T10:17:52;96747.41;;;27.89;43.40
64141;BME280;50436;50.618;7.932;2023-07-08T10:26:38;96722.56;;;28.01;39.49
64141;BME280;50436;50.618;7.932;2023-07-08T10:35:27;96721.59;;;28.41;38.65
64141;BME280;50436;50.618;7.932;2023-07-08T10:44:29;96724.34;;;28.56;39.30
64141;BME280;50436;50.618;7.932;2023-07-08T10:50:20;96730.50;;;28.69;41.91
64141;BME280;50436;50.618;7.932;2023-07-08T10:53:27;96724.22;;;28.88;42.22
64141;BME280;50436;50.618;7.932;2023-07-08T10:56:34;96713.81;;;29.36;43.03
64141;BME280;50436;50.618;7.932;2023-07-08T11:02:56;96728.78;;;30.00;39.36
64141;BME280;50436;50.618;7.932;2023-07-08T11:05:52;96731.13;;;29.75;39.63
64141;BME280;50436;50.618;7.932;2023-07-08T11:08:47;96738.16;;;29.95;38.33
64141;BME280;50436;50.618;7.932;2023-07-08T11:11:55;96724.78;;;30.66;37.45
64141;BME280;50436;50.618;7.932;2023-07-08T11:14:46;96730.03;;;30.75;41.57
64141;BME280;50436;50.618;7.932;2023-07-08T11:17:40;96735.91;;;30.73;39.29
64141;BME280;50436;50.618;7.932;2023-07-08T11:20:43;96728.09;;;31.09;38.48
64141;BME280;50436;50.618;7.932;2023-07-08T11:26:42;96727.88;;;31.55;33.88
64141;BME280;50436;50.618;7.932;2023-07-08T11:29:38;96732.25;;;32.37;32.20
64141;BME280;50436;50.618;7.932;2023-07-08T11:32:27;96742.59;;;33.03;30.14
64141;BME280;50436;50.618;7.932;2023-07-08T11:35:38;96738.09;;;33.57;29.37
64141;BME280;50436;50.618;7.932;2023-07-08T11:38:25;96730.25;;;34.69;28.05
64141;BME280;50436;50.618;7.932;2023-07-08T11:41:14;96730.06;;;35.37;27.08
64141;BME280;50436;50.618;7.932;2023-07-08T11:44:04;96728.13;;;36.07;25.21
64141;BME280;50436;50.618;7.932;2023-07-08T11:46:55;96737.03;;;36.81;24.79
64141;BME280;50436;50.618;7.932;2023-07-08T11:49:42;96726.63;;;36.89;23.69
64141;BME280;50436;50.618;7.932;2023-07-08T11:52:29;96722.47;;;39.16;22.72
64141;BME280;50436;50.618;7.932;2023-07-08T11:55:22;96721.66;;;38.72;22.85
64141;BME280;50436;50.618;7.932;2023-07-08T11:58:22;96711.88;;;39.44;22.18
64141;BME280;50436;50.618;7.932;2023-07-08T12:04:00;96711.00;;;40.03;21.78
64141;BME280;50436;50.618;7.932;2023-07-08T12:06:48;96734.25;;;40.98;20.01
64141;BME280;50436;50.618;7.932;2023-07-08T12:09:43;96710.69;;;40.95;19.44
64141;BME280;50436;50.618;7.932;2023-07-08T12:12:37;96713.72;;;42.82;19.29
64141;BME280;50436;50.618;7.932;2023-07-08T12:15:26;96721.72;;;41.02;19.23
64141;BME280;50436;50.618;7.932;2023-07-08T12:18:24;96726.69;;;40.33;20.14
64141;BME280;50436;50.618;7.932;2023-07-08T12:21:11;96720.38;;;40.45;20.36
64141;BME280;50436;50.618;7.932;2023-07-08T12:24:03;96720.97;;;40.69;19.39
64141;BME280;50436;50.618;7.932;2023-07-08T12:26:49;96721.91;;;39.97;20.34
64141;BME280;50436;50.618;7.932;2023-07-08T12:29:36;96727.50;;;39.61;20.40
64141;BME280;50436;50.618;7.932;2023-07-08T12:32:23;96725.25;;;40.90;19.46
64141;BME280;50436;50.618;7.932;2023-07-08T12:35:19;96728.44;;;41.05;18.98
64141;BME280;50436;50.618;7.932;2023-07-08T12:38:18;96717.63;;;41.87;19.03
64141;BME280;50436;50.618;7.932;2023-07-08T12:41:25;96721.03;;;42.20;17.59
64141;BME280;50436;50.618;7.932;2023-07-08T12:44:21;96718.44;;;42.00;18.50
64141;BME280;50436;50.618;7.932;2023-07-08T12:47:07;96714.38;;;43.43;16.96
64141;BME280;50436;50.618;7.932;2023-07-08T12:49:54;96705.00;;;42.68;17.84
64141;BME280;50436;50.618;7.932;2023-07-08T12:52:43;96705.94;;;42.01;17.39
64141;BME280;50436;50.618;7.932;2023-07-08T12:55:29;96715.66;;;41.04;19.02
64141;BME280;50436;50.618;7.932;2023-07-08T12:58:24;96717.63;;;41.19;18.78
64141;BME280;50436;50.618;7.932;2023-07-08T13:01:17;96709.16;;;43.42;16.67
64141;BME280;50436;50.618;7.932;2023-07-08T13:04:06;96700.50;;;42.92;18.04
64141;BME280;50436;50.618;7.932;2023-07-08T13:06:55;96710.28;;;41.09;18.14
64141;BME280;50436;50.618;7.932;2023-07-08T13:09:44;96709.66;;;42.36;17.12
64141;BME280;50436;50.618;7.932;2023-07-08T13:12:34;96716.03;;;41.18;18.01
64141;BME280;50436;50.618;7.932;2023-07-08T13:15:28;96714.09;;;40.86;17.45
64141;BME280;50436;50.618;7.932;2023-07-08T13:18:18;96712.97;;;42.69;17.27
64141;BME280;50436;50.618;7.932;2023-07-08T13:21:06;96715.00;;;43.25;15.49
64141;BME280;50436;50.618;7.932;2023-07-08T13:23:53;96706.59;;;41.67;16.72
64141;BME280;50436;50.618;7.932;2023-07-08T13:26:39;96715.03;;;39.06;18.91
64141;BME280;50436;50.618;7.932;2023-07-08T13:29:34;96703.56;;;39.40;19.58
64141;BME280;50436;50.618;7.932;2023-07-08T13:32:29;96705.84;;;42.30;17.04
64141;BME280;50436;50.618;7.932;2023-07-08T13:38:17;96700.94;;;43.78;16.66
64141;BME280;50436;50.618;7.932;2023-07-08T13:41:05;96697.72;;;44.38;15.74
64141;BME280;50436;50.618;7.932;2023-07-08T13:43:52;96703.47;;;44.16;16.25
64141;BME280;50436;50.618;7.932;2023-07-08T13:46:50;96700.81;;;44.22;15.87
64141;BME280;50436;50.618;7.932;2023-07-08T13:49:44;96709.41;;;43.34;16.94
64141;BME280;50436;50.618;7.932;2023-07-08T13:52:30;96701.53;;;42.98;16.02
64141;BME280;50436;50.618;7.932;2023-07-08T13:55:18;96699.97;;;44.62;16.58
64141;BME280;50436;50.618;7.932;2023-07-08T13:58:04;96708.94;;;42.92;16.32
64141;BME280;50436;50.618;7.932;2023-07-08T14:00:51;96705.91;;;43.43;15.80
64141;BME280;50436;50.618;7.932;2023-07-08T14:03:37;96700.59;;;43.23;16.44
64141;BME280;50436;50.618;7.932;2023-07-08T14:06:25;96706.00;;;43.61;16.68
64141;BME280;50436;50.618;7.932;2023-07-08T14:09:17;96695.28;;;44.77;14.99
64141;BME280;50436;50.618;7.932;2023-07-08T14:12:04;96705.25;;;43.70;15.16
64141;BME280;50436;50.618;7.932;2023-07-08T14:14:50;96707.16;;;46.39;15.12
64141;BME280;50436;50.618;7.932;2023-07-08T14:17:37;96708.44;;;44.62;15.49
64141;BME280;50436;50.618;7.932;2023-07-08T14:20:24;96705.94;;;44.73;15.95
64141;BME280;50436;50.618;7.932;2023-07-08T14:23:12;96700.34;;;44.24;15.55
64141;BME280;50436;50.618;7.932;2023-07-08T14:25:58;96710.66;;;43.11;16.86
64141;BME280;50436;50.618;7.932;2023-07-08T14:28:44;96707.09;;;42.76;17.27
64141;BME280;50436;50.618;7.932;2023-07-08T14:31:30;96693.41;;;43.00;17.03
64141;BME280;50436;50.618;7.932;2023-07-08T14:34:25;96691.63;;;42.46;17.22
64141;BME280;50436;50.618;7.932;2023-07-08T14:37:13;96695.81;;;41.24;18.49
64141;BME280;50436;50.618;7.932;2023-07-08T14:39:59;96685.59;;;41.17;18.11
64141;BME280;50436;50.618;7.932;2023-07-08T14:42:46;96705.34;;;41.42;18.05
64141;BME280;50436;50.618;7.932;2023-07-08T14:45:37;96706.19;;;41.81;17.52
64141;BME280;50436;50.618;7.932;2023-07-08T14:48:27;96691.00;;;42.29;17.34
64141;BME280;50436;50.618;7.932;2023-07-08T14:51:13;96692.91;;;41.69;18.24
64141;BME280;50436;50.618;7.932;2023-07-08T14:53:59;96691.91;;;42.01;18.36
64141;BME280;50436;50.618;7.932;2023-07-08T14:56:46;96693.59;;;41.98;17.84
64141;BME280;50436;50.618;7.932;2023-07-08T14:59:34;96691.16;;;42.48;17.02
64141;BME280;50436;50.618;7.932;2023-07-08T15:02:21;96689.78;;;41.92;18.01
64141;BME280;50436;50.618;7.932;2023-07-08T15:05:22;96683.09;;;43.81;17.01
64141;BME280;50436;50.618;7.932;2023-07-08T15:08:08;96688.75;;;43.28;15.93
64141;BME280;50436;50.618;7.932;2023-07-08T15:10:54;96688.81;;;42.59;17.71
64141;BME280;50436;50.618;7.932;2023-07-08T15:13:41;96687.75;;;44.74;16.39
64141;BME280;50436;50.618;7.932;2023-07-08T15:16:31;96691.13;;;44.32;15.79
64141;BME280;50436;50.618;7.932;2023-07-08T15:19:20;96697.91;;;43.73;16.26
64141;BME280;50436;50.618;7.932;2023-07-08T15:22:06;96692.44;;;41.45;17.93
64141;BME280;50436;50.618;7.932;2023-07-08T15:24:52;96694.41;;;41.73;18.15
64141;BME280;50436;50.618;7.932;2023-07-08T15:27:41;96679.53;;;42.11;17.68
64141;BME280;50436;50.618;7.932;2023-07-08T15:30:29;96700.47;;;43.05;17.07
64141;BME280;50436;50.618;7.932;2023-07-08T15:33:16;96708.16;;;41.55;18.82
64141;BME280;50436;50.618;7.932;2023-07-08T15:36:02;96697.84;;;41.10;18.50
64141;BME280;50436;50.618;7.932;2023-07-08T15:38:47;96695.34;;;41.41;18.20